Hood River, OR

11:24 AM PDT on September 29, 2016 (GMT -0700)
Hood River Weather | | Change Station

Elev 470 ft 45.70 °N, 121.54 °W | Updated 2 seconds ago

Clear
Clear
66.1 °F
Feels Like 66.1 °F
N
9.0
Wind Variable Wind from WNW
Gusts 14.0 mph

Today
High -- | Low -- °F
--% Chance of Precip.
Yesterday
High -- | Low -- °F
Precip. -- in
Pressure 29.97 in
Visibility 10.0 miles
Clouds Clear
Dew Point 48 °F
Humidity 53%
Rainfall 0.00 in
Snow Depth Not available.
7:02 AM 6:48 PM
Waning Crescent, 1% visible
METAR KDLS 291753Z AUTO 32012KT 10SM CLR 19/09 A2997 RMK AO2 SLP149 T01940094 10200 20128 50000
Pressure 29.97 in
Visibility 10.0 miles
Clouds Clear
Dew Point 48 °F
Humidity 53%
Rainfall 0.00 in
Snow Depth Not available.
7:02 AM 6:48 PM
Waning Crescent, 1% visible
METAR KDLS 291753Z AUTO 32012KT 10SM CLR 19/09 A2997 RMK AO2 SLP149 T01940094 10200 20128 50000

10-Day Weather Forecast

Almanac

Astronomy

Sep. 29, 2016 Rise Set
Actual Time
Civil Twilight
Nautical Twilight
Astronomical Twilight
Moon
Length of Visible Light
Length of Day
Tomorrow will be .
, % of the Moon is Illuminated

Today's Extremes

State Highs State Lows

Community

WunderPhotos

Upload Photos

1,942,545 photos uploaded!

WunderBlog® & News

Nearby

Air Quality

  Air Quality AQ Index Pollutant
Not available.

Snow Depth

Station Depth Elevation

Earthquake Activity

City Distance Mag. Time & Date
Minimum magnitude displayed is 2.5.

Coastal Water Temperatures

Place Temperature

Stations

Nearby Weather Stations

Station Location Temp. Windchill Dew Point Humidity Wind Precip. Elev Updated Type
                   

Watches & Warnings

There are currently no watches in effect.